Time,TemperatureF,DewpointF,PressureIn,WindDirection,WindDirectionDegrees,WindSpeedMPH,WindSpeedGustMPH,Humidity,HourlyPrecipIn,Conditions,Clouds,dailyrainin,SoftwareType,DateUTC
2013-07-01 00:29:00,65.8,66.0,29.87,West,269,0.0,0.0,99,0.00,,,0.00,weatherlink.com 1.10,2013-07-01 04:29:00,
2013-07-01 00:34:00,65.8,66.0,29.86,West,269,0.0,0.0,99,0.00,,,0.00,weatherlink.com 1.10,2013-07-01 04:34:00,
2013-07-01 00:49:00,65.5,65.0,29.87,West,269,0.0,0.0,99,0.00,,,0.00,weatherlink.com 1.10,2013-07-01 04:49:00,
2013-07-01 01:28:00,64.8,65.0,29.86,West,269,0.0,0.0,99,0.00,,,0.00,weatherlink.com 1.10,2013-07-01 05:28:00,
2013-07-01 01:35:00,65.0,65.0,29.86,West,269,0.0,0.0,99,0.00,,,0.00,weatherlink.com 1.10,2013-07-01 05:35:00,
2013-07-01 01:50:00,65.4,65.0,29.86,West,269,0.0,0.0,100,0.00,,,0.00,weatherlink.com 1.10,2013-07-01 05:50:00,
2013-07-01 02:05:00,64.8,65.0,29.86,West,269,0.0,0.0,99,0.00,,,0.00,weatherlink.com 1.10,2013-07-01 06:05:00,
2013-07-01 02:20:00,65.1,65.0,29.86,West,269,0.0,0.0,100,0.00,,,0.00,weatherlink.com 1.10,2013-07-01 06:20:00,
2013-07-01 02:35:00,65.2,65.0,29.86,West,269,0.0,0.0,100,0.00,,,0.00,weatherlink.com 1.10,2013-07-01 06:35:00,
2013-07-01 02:50:00,64.9,65.0,29.87,West,269,0.0,0.0,100,0.00,,,0.00,weatherlink.com 1.10,2013-07-01 06:50:00,
2013-07-01 03:05:00,64.6,64.0,29.87,West,269,0.0,0.0,99,0.00,,,0.00,weatherlink.com 1.10,2013-07-01 07:05:00,
2013-07-01 03:20:00,64.3,64.0,29.88,West,269,0.0,0.0,100,0.00,,,0.00,weatherlink.com 1.10,2013-07-01 07:20:00,
2013-07-01 03:35:00,64.2,64.0,29.88,West,269,0.0,0.0,99,0.00,,,0.00,weatherlink.com 1.10,2013-07-01 07:35:00,
2013-07-01 03:50:00,64.4,64.0,29.88,West,269,0.0,0.0,100,0.00,,,0.00,weatherlink.com 1.10,2013-07-01 07:50:00,
2013-07-01 04:05:00,64.7,65.0,29.88,West,269,0.0,0.0,100,0.00,,,0.00,weatherlink.com 1.10,2013-07-01 08:05:00,
2013-07-01 04:20:00,64.8,65.0,29.89,West,269,0.0,0.0,100,0.00,,,0.00,weatherlink.com 1.10,2013-07-01 08:20:00,
2013-07-01 04:35:00,64.8,65.0,29.89,West,269,0.0,0.0,100,0.00,,,0.00,weatherlink.com 1.10,2013-07-01 08:35:00,
2013-07-01 04:50:00,64.7,65.0,29.89,West,269,0.0,0.0,100,0.00,,,0.00,weatherlink.com 1.10,2013-07-01 08:50:00,
2013-07-01 05:05:00,65.0,65.0,29.89,West,269,0.0,0.0,100,0.00,,,0.00,weatherlink.com 1.10,2013-07-01 09:05:00,
2013-07-01 05:20:00,65.2,65.0,29.89,West,269,0.0,0.0,100,0.00,,,0.00,weatherlink.com 1.10,2013-07-01 09:20:00,
2013-07-01 05:35:00,65.3,65.0,29.89,West,269,0.0,0.0,100,0.00,,,0.00,weatherlink.com 1.10,2013-07-01 09:35:00,
2013-07-01 05:50:00,65.1,65.0,29.90,West,269,0.0,0.0,100,0.00,,,0.00,weatherlink.com 1.10,2013-07-01 09:50:00,
2013-07-01 06:05:00,65.5,66.0,29.91,West,269,0.0,0.0,100,0.00,,,0.00,weatherlink.com 1.10,2013-07-01 10:05:00,
2013-07-01 06:20:00,65.8,66.0,29.91,West,269,0.0,0.0,100,0.00,,,0.00,weatherlink.com 1.10,2013-07-01 10:20:00,
2013-07-01 06:35:00,65.9,66.0,29.91,West,269,0.0,0.0,100,0.00,,,0.00,weatherlink.com 1.10,2013-07-01 10:35:00,
2013-07-01 06:50:00,66.0,66.0,29.92,West,269,0.0,0.0,100,0.00,,,0.00,weatherlink.com 1.10,2013-07-01 10:50:00,
2013-07-01 07:05:00,66.2,66.0,29.92,West,269,0.0,0.0,100,0.00,,,0.00,weatherlink.com 1.10,2013-07-01 11:05:00,
2013-07-01 07:20:00,66.5,67.0,29.93,West,269,0.0,0.0,100,0.00,,,0.00,weatherlink.com 1.10,2013-07-01 11:20:00,
2013-07-01 07:35:00,66.8,67.0,29.93,West,269,0.0,0.0,100,0.00,,,0.00,weatherlink.com 1.10,2013-07-01 11:35:00,
2013-07-01 07:50:00,67.0,67.0,29.93,West,269,0.0,0.0,100,0.00,,,0.00,weatherlink.com 1.10,2013-07-01 11:50:00,
2013-07-01 08:06:00,67.1,67.0,29.94,West,269,0.0,0.0,100,0.00,,,0.00,weatherlink.com 1.10,2013-07-01 12:06:00,
2013-07-01 08:21:00,67.2,67.0,29.93,West,269,0.0,0.0,100,0.00,,,0.00,weatherlink.com 1.10,2013-07-01 12:21:00,
2013-07-01 08:36:00,67.3,67.0,29.94,West,269,0.0,0.0,100,0.00,,,0.00,weatherlink.com 1.10,2013-07-01 12:36:00,
2013-07-01 08:51:00,67.3,67.0,29.94,West,269,0.0,0.0,100,0.00,,,0.00,weatherlink.com 1.10,2013-07-01 12:51:00,
2013-07-01 09:06:00,67.6,68.0,29.94,West,269,0.0,0.0,100,0.00,,,0.00,weatherlink.com 1.10,2013-07-01 13:06:00,
2013-07-01 09:21:00,67.5,68.0,29.94,West,269,0.0,0.0,100,0.00,,,0.00,weatherlink.com 1.10,2013-07-01 13:21:00,
2013-07-01 09:36:00,67.7,68.0,29.94,West,269,0.0,0.0,100,0.00,,,0.00,weatherlink.com 1.10,2013-07-01 13:36:00,
2013-07-01 09:51:00,68.2,68.0,29.95,West,269,0.0,0.0,100,0.00,,,0.00,weatherlink.com 1.10,2013-07-01 13:51:00,
2013-07-01 10:06:00,68.6,69.0,29.95,West,269,0.0,0.0,100,0.00,,,0.00,weatherlink.com 1.10,2013-07-01 14:06:00,
2013-07-01 10:21:00,68.6,69.0,29.96,West,269,0.0,0.0,100,0.00,,,0.00,weatherlink.com 1.10,2013-07-01 14:21:00,
2013-07-01 10:36:00,68.6,68.0,29.96,West,269,0.0,0.0,99,0.00,,,0.00,weatherlink.com 1.10,2013-07-01 14:36:00,
2013-07-01 10:51:00,68.8,69.0,29.96,West,269,0.0,0.0,99,0.00,,,0.00,weatherlink.com 1.10,2013-07-01 14:51:00,
2013-07-01 11:06:00,68.9,68.0,29.97,West,269,0.0,0.0,98,0.00,,,0.00,weatherlink.com 1.10,2013-07-01 15:06:00,
2013-07-01 11:21:00,69.2,69.0,29.97,West,269,0.0,0.0,98,0.00,,,0.00,weatherlink.com 1.10,2013-07-01 15:21:00,
2013-07-01 11:36:00,69.6,69.0,29.97,West,269,0.0,0.0,97,0.00,,,0.00,weatherlink.com 1.10,2013-07-01 15:36:00,
2013-07-01 11:51:00,69.6,69.0,29.98,West,269,0.0,0.0,96,0.00,,,0.00,weatherlink.com 1.10,2013-07-01 15:51:00,
2013-07-01 12:06:00,69.9,69.0,29.98,West,269,0.0,1.0,97,0.00,,,0.00,weatherlink.com 1.10,2013-07-01 16:06:00,
2013-07-01 12:21:00,70.0,69.0,29.98,West,269,0.0,0.0,96,0.00,,,0.00,weatherlink.com 1.10,2013-07-01 16:21:00,
2013-07-01 12:36:00,70.3,69.0,29.97,West,269,0.0,0.0,96,0.00,,,0.00,weatherlink.com 1.10,2013-07-01 16:36:00,
2013-07-01 12:51:00,70.6,70.0,29.97,West,269,0.0,0.0,96,0.00,,,0.00,weatherlink.com 1.10,2013-07-01 16:51:00,
2013-07-01 13:06:00,70.6,70.0,29.96,West,269,0.0,0.0,96,0.00,,,0.00,weatherlink.com 1.10,2013-07-01 17:06:00,
2013-07-01 13:21:00,70.8,70.0,29.96,West,269,0.0,0.0,97,0.00,,,0.00,weatherlink.com 1.10,2013-07-01 17:21:00,
2013-07-01 13:36:00,71.5,70.0,29.95,West,269,0.0,0.0,96,0.00,,,0.00,weatherlink.com 1.10,2013-07-01 17:36:00,
2013-07-01 13:51:00,71.2,69.0,29.95,West,269,0.0,0.0,94,0.00,,,0.00,weatherlink.com 1.10,2013-07-01 17:51:00,
2013-07-01 14:06:00,70.9,70.0,29.95,West,269,0.0,1.0,96,0.00,,,0.00,weatherlink.com 1.10,2013-07-01 18:06:00,
2013-07-01 14:21:00,71.0,70.0,29.96,West,269,0.0,0.0,96,0.00,,,0.00,weatherlink.com 1.10,2013-07-01 18:21:00,
2013-07-01 14:36:00,71.0,70.0,29.97,WSW,255,0.0,1.0,95,0.00,,,0.00,weatherlink.com 1.10,2013-07-01 18:36:00,
2013-07-01 14:51:00,71.3,70.0,29.96,WSW,255,0.0,1.0,94,0.00,,,0.00,weatherlink.com 1.10,2013-07-01 18:51:00,
2013-07-01 15:06:00,71.8,70.0,29.96,WSW,255,0.0,1.0,93,0.00,,,0.00,weatherlink.com 1.10,2013-07-01 19:06:00,
2013-07-01 15:21:00,72.3,69.0,29.96,WSW,255,0.0,1.0,90,0.00,,,0.00,weatherlink.com 1.10,2013-07-01 19:21:00,
2013-07-01 15:36:00,72.3,69.0,29.96,WSW,255,0.0,1.0,90,0.01,,,0.01,weatherlink.com 1.10,2013-07-01 19:36:00,
2013-07-01 15:51:00,72.2,70.0,29.96,WSW,255,0.0,1.0,91,0.01,,,0.01,weatherlink.com 1.10,2013-07-01 19:51:00,
2013-07-01 16:06:00,72.0,70.0,29.96,WSW,255,0.0,1.0,92,0.01,,,0.01,weatherlink.com 1.10,2013-07-01 20:06:00,
2013-07-01 16:21:00,71.8,69.0,29.96,WSW,255,0.0,0.0,90,0.01,,,0.01,weatherlink.com 1.10,2013-07-01 20:21:00,
2013-07-01 16:36:00,71.6,69.0,29.97,WSW,255,0.0,0.0,92,0.00,,,0.01,weatherlink.com 1.10,2013-07-01 20:36:00,
2013-07-01 16:51:00,71.3,69.0,29.96,WSW,255,0.0,0.0,92,0.00,,,0.01,weatherlink.com 1.10,2013-07-01 20:51:00,
2013-07-01 17:06:00,71.1,69.0,29.96,WSW,255,0.0,0.0,94,0.00,,,0.01,weatherlink.com 1.10,2013-07-01 21:06:00,
2013-07-01 17:21:00,70.9,69.0,29.96,WSW,255,0.0,0.0,94,0.00,,,0.01,weatherlink.com 1.10,2013-07-01 21:21:00,
2013-07-01 17:36:00,70.8,69.0,29.96,WSW,255,0.0,0.0,95,0.00,,,0.01,weatherlink.com 1.10,2013-07-01 21:36:00,
2013-07-01 17:51:00,70.6,69.0,29.96,WSW,255,0.0,0.0,95,0.00,,,0.01,weatherlink.com 1.10,2013-07-01 21:51:00,
2013-07-01 18:06:00,70.6,70.0,29.97,WSW,255,0.0,0.0,96,0.00,,,0.01,weatherlink.com 1.10,2013-07-01 22:06:00,
2013-07-01 18:21:00,70.5,69.0,29.97,WSW,255,0.0,0.0,96,0.00,,,0.01,weatherlink.com 1.10,2013-07-01 22:21:00,
2013-07-01 18:36:00,70.3,69.0,29.97,WSW,255,0.0,0.0,96,0.00,,,0.01,weatherlink.com 1.10,2013-07-01 22:36:00,
2013-07-01 18:51:00,69.9,69.0,29.97,WSW,255,0.0,0.0,96,0.00,,,0.01,weatherlink.com 1.10,2013-07-01 22:51:00,
2013-07-01 19:06:00,69.3,68.0,29.97,WSW,255,0.0,0.0,96,0.00,,,0.01,weatherlink.com 1.10,2013-07-01 23:06:00,
2013-07-01 19:21:00,68.9,68.0,29.97,WSW,255,0.0,0.0,96,0.00,,,0.01,weatherlink.com 1.10,2013-07-01 23:21:00,
2013-07-01 19:36:00,68.5,67.0,29.97,WSW,255,0.0,0.0,96,0.00,,,0.01,weatherlink.com 1.10,2013-07-01 23:36:00,
2013-07-01 19:51:00,68.0,67.0,29.98,WSW,255,0.0,0.0,96,0.00,,,0.01,weatherlink.com 1.10,2013-07-01 23:51:00,
2013-07-01 20:06:00,67.8,67.0,29.98,WSW,255,0.0,0.0,97,0.00,,,0.01,weatherlink.com 1.10,2013-07-02 00:06:00,
2013-07-01 20:21:00,67.6,67.0,29.99,WSW,255,0.0,0.0,97,0.00,,,0.01,weatherlink.com 1.10,2013-07-02 00:21:00,
2013-07-01 20:36:00,67.3,67.0,30.00,WSW,255,0.0,0.0,98,0.00,,,0.01,weatherlink.com 1.10,2013-07-02 00:36:00,
2013-07-01 20:51:00,66.8,66.0,30.00,WSW,255,0.0,0.0,98,0.00,,,0.01,weatherlink.com 1.10,2013-07-02 00:51:00,
2013-07-01 21:06:00,66.5,66.0,29.99,WSW,255,0.0,0.0,99,0.00,,,0.01,weatherlink.com 1.10,2013-07-02 01:06:00,
2013-07-01 21:21:00,66.3,66.0,30.00,WSW,255,0.0,0.0,99,0.00,,,0.01,weatherlink.com 1.10,2013-07-02 01:21:00,
2013-07-01 21:36:00,66.1,66.0,30.00,WSW,255,0.0,0.0,99,0.00,,,0.01,weatherlink.com 1.10,2013-07-02 01:36:00,
2013-07-01 21:52:00,66.0,66.0,30.00,WSW,255,0.0,0.0,99,0.00,,,0.01,weatherlink.com 1.10,2013-07-02 01:52:00,
2013-07-01 22:07:00,65.9,66.0,30.01,WSW,255,0.0,0.0,99,0.00,,,0.01,weatherlink.com 1.10,2013-07-02 02:07:00,
2013-07-01 22:22:00,65.8,66.0,30.00,WSW,255,0.0,0.0,99,0.00,,,0.01,weatherlink.com 1.10,2013-07-02 02:22:00,
2013-07-01 22:37:00,65.8,66.0,29.99,WSW,255,0.0,0.0,100,0.00,,,0.01,weatherlink.com 1.10,2013-07-02 02:37:00,
2013-07-01 22:52:00,65.7,66.0,30.00,WSW,255,0.0,0.0,100,0.00,,,0.01,weatherlink.com 1.10,2013-07-02 02:52:00,
2013-07-01 23:07:00,65.5,65.0,30.00,WSW,255,0.0,0.0,99,0.00,,,0.01,weatherlink.com 1.10,2013-07-02 03:07:00,
2013-07-01 23:22:00,65.4,65.0,29.99,WSW,255,0.0,0.0,100,0.00,,,0.01,weatherlink.com 1.10,2013-07-02 03:22:00,
2013-07-01 23:37:00,65.7,66.0,29.99,WSW,255,0.0,1.0,100,0.00,,,0.01,weatherlink.com 1.10,2013-07-02 03:37:00,
2013-07-01 23:52:00,65.9,66.0,29.99,WSW,255,0.0,0.0,100,0.00,,,0.01,weatherlink.com 1.10,2013-07-02 03:52:00,